Airfield :
LOGIN :

Register | Disclaimer

   EN    FR    IT 

 










Legend :    VFR   Marginal VFR   IFR   Intensive IFR   Very Intensive IFR
Visi :
Ceiling :
>= 8 km
>= 3000ft
5 to 8 km
1000 to 3000 ft
1500m to 5 km
500 to 1000 ft
800 to 1500m
200 to 500 ft
< 800m
< 200 ft
Symbols :   Thunderstorms  Fog  Heavy snow  Heavy precipitations  Wind > 20 kt
SIGMETs :     Misc.  Thunderstorms  Icing  Turbulence  Mountain Waves  Volcanic Ashes







- Airport Elevation : 26 ft
- IATA code : SYY
- Download approach charts


EGPO - Stornoway

CURRENT METAR :
  • 212020Z AUTO 20014KT 9999 FEW036/// OVC046/// 12/10 Q1005

EXPIRED METARs :
  • 211950Z AUTO 20016KT 9999 BKN047/// 11/10 Q1006
  • 211920Z AUTO 20015KT 9999 OVC041/// 11/10 Q1006
  • 211850Z AUTO 20017KT 9999 FEW020/// BKN025/// OVC039/// 12/10 Q1006
  • 211820Z AUTO 19018KT 9999 BKN015/// OVC022/// 12/10 Q1007
  • 211750Z AUTO 19016KT 9999 OVC013/// 11/10 Q1007

TAF AMD TAF EGPO
Valid from the 21 at 19:00 until the 22 at 03:00 UTC


211938Z 2119/2203 18017KT 9999 BKN030
PROB40
TEMPO 2119/2123 6000 -RA BKN012
TEMPO 2200/2203 18020G30KT
ATIS : +44 1851 707 444
No reported NOTAMs for that airfield.



MET'MAP, your aeronautical weather chart ! - Copyright ORBIFLY December 2007 - Disclaimer

ORBIFLY MET'MAP TEAM :

Programming & Development : Alexandra Zaïnal
Concept & Development : Baudouin d'Aumeries
Co-Development & Prog : Marc-Olivier Méhu
Technical & hardware support : Manuel Goepfert

Contact : metmap@orbifly.com




SOURCES & CREDITS :

   NOAA